Boggsville, Illinois
Current Conditions -  °F | °C
As of 4:15 PM on Monday 20 Oct 2014 (Local Time) from K1H2 Reporting Station
Clear Clear  
Wind Chill: 71°   Ceiling: Unl
Heat Index: 71°   Visibility: 10mi
Dew Point: 37°   Wind: 14mph
Humidity: 28%   Direction: 320°NW
Pressure: 29.9"   Gusts: 20mph
Location:  39.1183°N, 88.6059°W
Report Text: K1H2 202115Z AUTO 32012G17KT 10SM CLR 22/03 A2990 RMK AO2 T02170026
Loading
Personal Weather Stations






























Interactive Weather Map
Tropical Storm Tracking
New forecast layout! Learn more

10-Day Weather Forecast

Advertisements
Track Severe Weather on mobile